createdAt,value
2018-12-25T00:00:50.830Z,6.20
2018-12-25T00:01:50.820Z,6.40
2018-12-25T00:02:50.807Z,6.30
2018-12-25T00:03:50.800Z,6.50
2018-12-25T00:04:50.785Z,6.00
2018-12-25T00:05:50.777Z,6.10
2018-12-25T00:06:50.768Z,6.10
2018-12-25T00:07:50.752Z,6.00
2018-12-25T00:08:50.743Z,6.00
2018-12-25T00:09:50.729Z,6.30
2018-12-25T00:10:50.720Z,6.40
2018-12-25T00:11:50.713Z,6.20
2018-12-25T00:12:50.697Z,6.00
2018-12-25T00:13:50.688Z,6.50
2018-12-25T00:14:50.674Z,5.80
2018-12-25T00:15:50.663Z,6.10
2018-12-25T00:16:50.652Z,5.80
2018-12-25T00:17:50.642Z,5.40
2018-12-25T00:18:50.630Z,6.10
2018-12-25T00:19:50.618Z,5.60
2018-12-25T00:20:50.608Z,6.00
2018-12-25T00:21:50.598Z,6.20
2018-12-25T00:22:50.588Z,5.60
2018-12-25T00:23:50.576Z,5.50
2018-12-25T00:24:50.565Z,5.30
2018-12-25T00:25:50.553Z,6.00
2018-12-25T00:26:50.542Z,6.40
2018-12-25T00:27:50.532Z,5.70
2018-12-25T00:28:50.519Z,4.90
2018-12-25T00:29:50.512Z,5.50
2018-12-25T00:30:50.496Z,5.60
2018-12-25T00:31:50.485Z,6.10
2018-12-25T00:32:50.510Z,5.50
2018-12-25T00:33:50.465Z,5.40
2018-12-25T00:34:50.456Z,5.40
2018-12-25T00:35:50.445Z,5.30
2018-12-25T00:36:50.429Z,5.90
2018-12-25T00:37:50.491Z,5.90
2018-12-25T00:38:50.408Z,5.80
2018-12-25T00:39:50.396Z,5.10
2018-12-25T00:40:50.386Z,5.20
2018-12-25T00:41:50.374Z,5.60
2018-12-25T00:42:50.365Z,5.90
2018-12-25T00:43:50.352Z,5.70
2018-12-25T00:44:50.341Z,5.20
2018-12-25T00:45:50.331Z,5.70
2018-12-25T00:46:50.324Z,5.70
2018-12-25T00:47:50.312Z,5.30
2018-12-25T00:48:50.298Z,5.40
2018-12-25T00:49:50.286Z,5.90
2018-12-25T00:50:50.275Z,5.50
2018-12-25T00:51:50.263Z,5.80
2018-12-25T00:52:50.256Z,5.60
2018-12-25T00:53:50.244Z,5.60
2018-12-25T00:54:50.231Z,5.70
2018-12-25T00:55:50.222Z,5.30
2018-12-25T00:56:50.209Z,5.70
2018-12-25T00:58:09.848Z,5.60
2018-12-25T00:59:32.230Z,5.90
2018-12-25T01:00:32.224Z,5.70
2018-12-25T01:01:32.210Z,6.10
2018-12-25T01:02:32.196Z,6.10
2018-12-25T01:03:32.185Z,5.60
2018-12-25T01:04:32.176Z,5.60
2018-12-25T01:05:32.163Z,6.00
2018-12-25T01:06:32.153Z,5.90
2018-12-25T01:07:32.142Z,5.80
2018-12-25T01:08:32.130Z,5.80
2018-12-25T01:09:32.119Z,5.80
2018-12-25T01:10:32.109Z,5.70
2018-12-25T01:11:32.097Z,5.50
2018-12-25T01:12:32.087Z,6.00
2018-12-25T01:13:32.075Z,6.10
2018-12-25T01:14:32.062Z,5.80
2018-12-25T01:15:32.054Z,5.90
2018-12-25T01:16:32.042Z,6.00
2018-12-25T01:17:32.030Z,6.00
2018-12-25T01:18:32.021Z,5.90
2018-12-25T01:19:32.029Z,5.90
2018-12-25T01:20:31.997Z,6.10
2018-12-25T01:21:31.988Z,6.70
2018-12-25T01:22:31.975Z,6.00
2018-12-25T01:23:31.963Z,5.60
2018-12-25T01:24:31.955Z,6.30
2018-12-25T01:25:31.942Z,6.30
2018-12-25T01:26:31.931Z,6.10
2018-12-25T01:27:31.921Z,6.00
2018-12-25T01:28:31.908Z,6.10
2018-12-25T01:29:31.899Z,6.30
2018-12-25T01:30:31.889Z,5.20
2018-12-25T01:31:31.875Z,5.20
2018-12-25T01:32:31.867Z,5.40
2018-12-25T01:33:31.853Z,5.30
2018-12-25T01:34:31.846Z,5.20
2018-12-25T01:35:31.831Z,5.50
2018-12-25T01:36:31.820Z,5.20
2018-12-25T01:37:31.808Z,5.40
2018-12-25T01:38:31.799Z,5.30
2018-12-25T01:39:31.788Z,5.60
2018-12-25T01:40:31.774Z,5.60
2018-12-25T01:41:31.764Z,6.10
2018-12-25T01:42:31.752Z,5.70
2018-12-25T01:43:31.743Z,5.70
2018-12-25T01:44:31.732Z,5.00
2018-12-25T01:45:31.719Z,5.30
2018-12-25T01:46:31.710Z,5.60
2018-12-25T01:47:31.698Z,5.30
2018-12-25T01:48:31.687Z,5.50
2018-12-25T01:49:32.169Z,6.30
2018-12-25T01:50:31.664Z,6.20
2018-12-25T01:51:31.653Z,6.30
2018-12-25T01:52:31.642Z,6.20
2018-12-25T01:53:31.630Z,6.60
2018-12-25T01:54:31.620Z,7.20
2018-12-25T01:55:31.617Z,6.70
2018-12-25T01:56:31.597Z,6.80
2018-12-25T01:57:31.590Z,6.70
2018-12-25T01:58:31.577Z,6.90
2018-12-25T01:59:31.563Z,7.10
2018-12-25T02:00:31.553Z,7.20
2018-12-25T02:01:31.542Z,7.20
2018-12-25T02:02:31.532Z,7.50
2018-12-25T02:03:31.523Z,7.70
2018-12-25T02:04:31.509Z,7.30
2018-12-25T02:05:31.497Z,7.00
2018-12-25T02:06:31.504Z,7.00
2018-12-25T02:07:31.476Z,7.70
2018-12-25T02:08:31.464Z,7.90
2018-12-25T02:09:31.456Z,7.40
2018-12-25T02:10:31.441Z,7.90
2018-12-25T02:11:31.430Z,7.70
2018-12-25T02:12:31.421Z,7.50
2018-12-25T02:13:31.408Z,7.30
2018-12-25T02:14:31.397Z,7.40
2018-12-25T02:15:31.387Z,8.20
2018-12-25T02:16:31.377Z,7.90
2018-12-25T02:17:31.365Z,7.60
2018-12-25T02:18:31.352Z,7.30
2018-12-25T02:19:31.343Z,7.20
2018-12-25T02:20:31.331Z,7.20
2018-12-25T02:21:31.320Z,6.30
2018-12-25T02:22:31.308Z,7.10
2018-12-25T02:23:31.299Z,7.20
2018-12-25T02:24:31.286Z,7.70
2018-12-25T02:25:31.279Z,6.80
2018-12-25T02:26:31.265Z,7.00
2018-12-25T02:27:31.254Z,7.10
2018-12-25T02:28:31.243Z,7.20
2018-12-25T02:29:31.230Z,7.10
2018-12-25T02:30:31.222Z,6.60
2018-12-25T02:31:31.215Z,6.80
2018-12-25T02:32:31.198Z,6.60
2018-12-25T02:33:31.187Z,6.70
2018-12-25T02:34:31.177Z,6.80
2018-12-25T02:35:31.165Z,7.30
2018-12-25T02:36:31.153Z,6.80
2018-12-25T02:37:31.144Z,7.10
2018-12-25T02:38:31.131Z,6.60
2018-12-25T02:39:31.120Z,6.60
2018-12-25T02:40:31.108Z,7.40
2018-12-25T02:41:31.097Z,6.50
2018-12-25T02:42:31.090Z,6.70
2018-12-25T02:43:31.077Z,6.70
2018-12-25T02:44:31.069Z,6.70
2018-12-25T02:45:31.053Z,6.10
2018-12-25T02:46:31.044Z,6.70
2018-12-25T02:47:31.035Z,6.90
2018-12-25T02:48:31.024Z,6.20
2018-12-25T02:49:31.022Z,6.20
2018-12-25T02:50:30.999Z,6.70
2018-12-25T02:51:30.992Z,5.90
2018-12-25T02:52:30.979Z,6.40
2018-12-25T02:53:30.965Z,6.20
2018-12-25T02:54:31.045Z,6.10
2018-12-25T02:55:30.944Z,6.20
2018-12-25T02:56:30.932Z,6.10
2018-12-25T02:57:30.921Z,6.40
2018-12-25T02:58:30.910Z,6.40
2018-12-25T02:59:30.897Z,6.10
2018-12-25T03:00:30.887Z,6.40
2018-12-25T03:01:30.876Z,6.20
2018-12-25T03:02:30.869Z,5.80
2018-12-25T03:03:30.857Z,5.80
2018-12-25T03:04:30.843Z,6.10
2018-12-25T03:05:30.832Z,5.40
2018-12-25T03:06:30.821Z,5.60
2018-12-25T03:07:30.809Z,6.00
2018-12-25T03:08:30.803Z,5.90
2018-12-25T03:09:30.788Z,5.30
2018-12-25T03:10:30.777Z,5.90
2018-12-25T03:11:30.766Z,5.20
2018-12-25T03:12:30.756Z,5.20
2018-12-25T03:13:30.745Z,5.30
2018-12-25T03:14:30.739Z,5.20
2018-12-25T03:15:30.721Z,5.50
2018-12-25T03:16:30.709Z,5.80
2018-12-25T03:17:30.701Z,5.60
2018-12-25T03:18:30.688Z,6.00
2018-12-25T03:19:30.679Z,5.20
2018-12-25T03:20:30.664Z,6.10
2018-12-25T03:21:30.656Z,5.90
2018-12-25T03:22:30.646Z,5.70
2018-12-25T03:23:30.633Z,5.80
2018-12-25T03:24:30.635Z,5.90
2018-12-25T03:25:30.611Z,5.70
2018-12-25T03:26:30.600Z,5.30
2018-12-25T03:27:30.591Z,5.70
2018-12-25T03:28:30.578Z,5.00
2018-12-25T03:29:30.567Z,5.90
2018-12-25T03:30:30.555Z,5.40
2018-12-25T03:31:30.550Z,6.20
2018-12-25T03:32:30.553Z,5.90
2018-12-25T03:33:30.522Z,6.00
2018-12-25T03:34:30.509Z,5.90
2018-12-25T03:35:30.499Z,5.70
2018-12-25T03:36:30.489Z,5.50
2018-12-25T03:37:30.479Z,5.10
2018-12-25T03:38:30.465Z,6.30
2018-12-25T03:39:30.456Z,6.10
2018-12-25T03:40:30.452Z,5.70
2018-12-25T03:41:30.435Z,5.60
2018-12-25T03:42:30.421Z,5.20
2018-12-25T03:43:30.409Z,5.70
2018-12-25T03:44:30.399Z,5.70
2018-12-25T03:45:30.387Z,5.40
2018-12-25T03:46:30.467Z,5.10
2018-12-25T03:47:30.366Z,5.60
2018-12-25T03:48:30.354Z,5.60
2018-12-25T03:49:30.344Z,5.50
2018-12-25T03:50:30.334Z,4.90
2018-12-25T03:51:30.321Z,5.90
2018-12-25T03:52:30.311Z,5.90
2018-12-25T03:53:30.299Z,5.70
2018-12-25T03:54:30.289Z,5.80
2018-12-25T03:55:30.277Z,5.60
2018-12-25T03:56:30.266Z,5.80
2018-12-25T03:57:30.256Z,4.80
2018-12-25T03:58:30.244Z,5.00
2018-12-25T03:59:30.232Z,4.80
2018-12-25T04:00:30.221Z,5.30
2018-12-25T04:01:30.211Z,4.40
2018-12-25T04:02:30.202Z,5.10
2018-12-25T04:03:30.188Z,5.20
2018-12-25T04:04:30.178Z,5.00
2018-12-25T04:05:30.167Z,5.10
2018-12-25T04:06:30.155Z,4.70
2018-12-25T04:07:30.148Z,4.90
2018-12-25T04:08:30.140Z,5.20
2018-12-25T04:09:30.121Z,4.90
2018-12-25T04:10:30.111Z,4.70
2018-12-25T04:11:30.100Z,5.20
2018-12-25T04:12:30.089Z,5.10
2018-12-25T04:13:30.079Z,4.90
2018-12-25T04:14:30.069Z,4.80
2018-12-25T04:15:30.059Z,5.00
2018-12-25T04:16:30.044Z,5.00
2018-12-25T04:17:30.034Z,5.20
2018-12-25T04:18:30.023Z,5.10
2018-12-25T04:19:30.016Z,4.90
2018-12-25T04:20:30.002Z,4.70
2018-12-25T04:21:29.993Z,4.70
2018-12-25T04:22:29.977Z,4.50
2018-12-25T04:23:29.965Z,4.40
2018-12-25T04:24:29.974Z,4.80
2018-12-25T04:25:29.943Z,4.30
2018-12-25T04:26:29.932Z,4.70
2018-12-25T04:27:29.924Z,4.60
2018-12-25T04:28:29.911Z,4.10
2018-12-25T04:29:29.900Z,4.40
2018-12-25T04:30:29.890Z,3.60
2018-12-25T04:31:29.883Z,4.60
2018-12-25T04:32:29.868Z,4.00
2018-12-25T04:33:29.856Z,4.10
2018-12-25T04:34:29.846Z,3.90
2018-12-25T04:35:29.836Z,3.50
2018-12-25T04:36:29.823Z,3.90
2018-12-25T04:37:29.812Z,3.70
2018-12-25T04:38:29.799Z,3.70
2018-12-25T04:39:29.788Z,3.80
2018-12-25T04:40:29.777Z,3.60
2018-12-25T04:41:29.772Z,3.60
2018-12-25T04:42:29.754Z,3.90
2018-12-25T04:43:29.744Z,4.00
2018-12-25T04:44:29.737Z,4.30
2018-12-25T04:45:29.721Z,4.20
2018-12-25T04:46:29.712Z,3.60
2018-12-25T04:47:29.702Z,4.20
2018-12-25T04:48:29.687Z,4.00
2018-12-25T04:49:29.676Z,3.90
2018-12-25T04:50:29.886Z,4.10
2018-12-25T04:51:29.833Z,3.70
2018-12-25T04:52:29.649Z,3.80
2018-12-25T04:53:29.633Z,3.40
2018-12-25T04:54:29.621Z,3.50
2018-12-25T04:55:29.608Z,3.60
2018-12-25T04:56:29.599Z,3.70
2018-12-25T04:57:29.591Z,3.30
2018-12-25T04:58:29.575Z,3.50
2018-12-25T04:59:29.564Z,4.00
2018-12-25T05:00:29.557Z,4.00
2018-12-25T05:01:29.544Z,3.60
2018-12-25T05:02:29.532Z,3.00
2018-12-25T05:03:29.524Z,3.60
2018-12-25T05:04:29.516Z,3.30
2018-12-25T05:05:29.498Z,3.60
2018-12-25T05:06:29.488Z,2.90
2018-12-25T05:07:29.477Z,3.30
2018-12-25T05:08:29.472Z,3.30
2018-12-25T05:09:29.454Z,3.30
2018-12-25T05:10:29.449Z,3.10
2018-12-25T05:11:29.434Z,3.20
2018-12-25T05:12:29.422Z,4.20
2018-12-25T05:13:29.411Z,3.00
2018-12-25T05:14:29.397Z,3.00
2018-12-25T05:15:29.388Z,2.90
2018-12-25T05:16:29.377Z,2.70
2018-12-25T05:17:29.365Z,2.70
2018-12-25T05:18:29.354Z,2.60
2018-12-25T05:19:29.411Z,2.60
2018-12-25T05:20:37.654Z,2.70
2018-12-25T05:21:30.322Z,2.80
2018-12-25T05:22:29.311Z,2.50
2018-12-25T05:23:29.301Z,2.60
2018-12-25T05:24:29.286Z,2.40
2018-12-25T05:25:29.278Z,2.50
2018-12-25T05:26:29.265Z,2.00
2018-12-25T05:27:29.360Z,2.10
2018-12-25T05:28:29.244Z,2.40
2018-12-25T05:29:29.231Z,2.40
2018-12-25T05:30:29.221Z,2.20
2018-12-25T05:31:29.210Z,2.00
2018-12-25T05:32:29.201Z,2.10
2018-12-25T05:33:29.196Z,2.00
2018-12-25T05:34:29.279Z,2.00
2018-12-25T05:35:29.166Z,2.10
2018-12-25T05:36:29.157Z,2.00
2018-12-25T05:37:29.144Z,2.10
2018-12-25T05:38:29.133Z,2.10
2018-12-25T05:39:29.126Z,2.00
2018-12-25T05:40:29.113Z,2.40
2018-12-25T05:41:48.724Z,2.10
2018-12-25T05:43:10.652Z,2.00
2018-12-25T05:44:10.625Z,2.10
2018-12-25T05:45:52.656Z,1.30
2018-12-25T05:46:52.645Z,1.80
2018-12-25T05:47:52.634Z,1.80
2018-12-25T05:48:52.623Z,1.90
2018-12-25T05:49:52.612Z,2.50
2018-12-25T05:50:52.601Z,1.90
2018-12-25T05:51:52.589Z,1.50
2018-12-25T05:52:52.579Z,1.80
2018-12-25T05:53:52.567Z,1.90
2018-12-25T05:54:52.557Z,1.60
2018-12-25T05:55:52.546Z,1.80
2018-12-25T05:56:52.537Z,2.10
2018-12-25T05:57:52.524Z,2.30
2018-12-25T05:58:52.516Z,1.90
2018-12-25T05:59:52.501Z,1.80
2018-12-25T06:00:52.489Z,1.90
2018-12-25T06:01:52.480Z,1.70
2018-12-25T06:02:52.469Z,1.80
2018-12-25T06:03:52.457Z,1.60
2018-12-25T06:04:52.446Z,1.70
2018-12-25T06:05:52.434Z,1.50
2018-12-25T06:06:52.424Z,2.10
2018-12-25T06:07:52.413Z,1.90
2018-12-25T06:08:52.402Z,1.90
2018-12-25T06:09:52.391Z,1.60
2018-12-25T06:10:52.379Z,2.00
2018-12-25T06:11:52.370Z,1.60
2018-12-25T06:12:52.358Z,1.60
2018-12-25T06:13:52.345Z,2.00
2018-12-25T06:14:52.340Z,1.70
2018-12-25T06:15:52.325Z,1.60
2018-12-25T06:16:52.314Z,1.80
2018-12-25T06:17:52.303Z,1.60
2018-12-25T06:18:52.291Z,2.10
2018-12-25T06:19:52.279Z,1.90
2018-12-25T06:20:55.258Z,1.90
2018-12-25T06:21:52.259Z,1.80
2018-12-25T06:22:52.245Z,1.90
2018-12-25T06:23:52.236Z,2.00
2018-12-25T06:24:52.224Z,2.00
2018-12-25T06:25:52.214Z,1.80
2018-12-25T06:26:52.202Z,1.90
2018-12-25T06:27:52.191Z,1.80
2018-12-25T06:28:52.179Z,2.20
2018-12-25T06:29:52.167Z,1.70
2018-12-25T06:30:52.160Z,2.40
2018-12-25T06:31:52.146Z,1.80
2018-12-25T06:32:52.134Z,1.90
2018-12-25T06:33:52.124Z,2.00
2018-12-25T06:34:52.113Z,2.20
2018-12-25T06:35:52.102Z,2.60
2018-12-25T06:36:52.091Z,2.10
2018-12-25T06:37:52.082Z,2.10
2018-12-25T06:38:52.069Z,2.00
2018-12-25T06:39:52.056Z,2.40
2018-12-25T06:40:52.046Z,1.90
2018-12-25T06:41:52.123Z,2.10
2018-12-25T06:42:52.025Z,2.10
2018-12-25T06:43:52.012Z,1.90
2018-12-25T06:44:52.001Z,2.10
2018-12-25T06:45:51.990Z,2.30
2018-12-25T06:46:51.979Z,2.40
2018-12-25T06:47:51.970Z,2.00
2018-12-25T06:48:51.958Z,2.30
2018-12-25T06:49:51.945Z,2.10
2018-12-25T06:50:51.937Z,2.10
2018-12-25T06:51:51.924Z,1.80
2018-12-25T06:52:51.914Z,2.10
2018-12-25T06:53:51.902Z,1.90
2018-12-25T06:54:51.892Z,1.90
2018-12-25T06:55:51.878Z,2.20
2018-12-25T06:56:51.882Z,2.20
2018-12-25T06:57:51.857Z,2.20
2018-12-25T06:58:51.846Z,1.90
2018-12-25T06:59:51.835Z,2.40
2018-12-25T07:00:51.824Z,2.10
2018-12-25T07:01:51.812Z,2.20
2018-12-25T07:02:51.803Z,2.20
2018-12-25T07:03:51.791Z,1.80
2018-12-25T07:04:51.779Z,1.90
2018-12-25T07:05:51.768Z,2.00
2018-12-25T07:06:51.761Z,2.00
2018-12-25T07:07:51.745Z,2.20
2018-12-25T07:08:51.734Z,2.50
2018-12-25T07:09:51.726Z,2.10
2018-12-25T07:10:51.715Z,2.10
2018-12-25T07:11:51.701Z,2.20
2018-12-25T07:12:51.690Z,2.30
2018-12-25T07:13:51.679Z,2.50
2018-12-25T07:14:51.668Z,2.20
2018-12-25T07:15:51.672Z,2.20
2018-12-25T07:16:51.654Z,2.10
2018-12-25T07:17:51.635Z,2.00
2018-12-25T07:18:51.623Z,2.40
2018-12-25T07:19:51.611Z,2.00
2018-12-25T07:20:51.602Z,2.00
2018-12-25T07:21:51.589Z,2.20
2018-12-25T07:22:51.580Z,2.50
2018-12-25T07:23:51.566Z,1.90
2018-12-25T07:24:51.556Z,2.10
2018-12-25T07:25:51.545Z,2.40
2018-12-25T07:26:51.534Z,2.20
2018-12-25T07:27:51.524Z,2.70
2018-12-25T07:28:51.517Z,2.50
2018-12-25T07:29:51.502Z,3.10
2018-12-25T07:30:51.490Z,2.50
2018-12-25T07:31:51.479Z,3.00
2018-12-25T07:32:51.470Z,2.80
2018-12-25T07:33:51.458Z,2.70
2018-12-25T07:34:51.446Z,2.90
2018-12-25T07:35:51.434Z,2.70
2018-12-25T07:36:51.422Z,2.20
2018-12-25T07:37:51.411Z,2.80
2018-12-25T07:38:51.403Z,2.20
2018-12-25T07:39:51.391Z,2.30
2018-12-25T07:40:51.377Z,2.30
2018-12-25T07:41:51.366Z,2.10
2018-12-25T07:42:51.357Z,2.40
2018-12-25T07:43:51.345Z,2.10
2018-12-25T07:44:51.336Z,2.50
2018-12-25T07:45:51.324Z,2.40
2018-12-25T07:46:51.403Z,2.50
2018-12-25T07:47:51.301Z,2.70
2018-12-25T07:48:51.289Z,2.50
2018-12-25T07:49:51.279Z,2.50
2018-12-25T07:50:51.267Z,2.40
2018-12-25T07:51:51.255Z,2.40
2018-12-25T07:52:51.246Z,2.50
2018-12-25T07:53:51.235Z,2.30
2018-12-25T07:54:51.222Z,2.10
2018-12-25T07:55:51.213Z,2.50
2018-12-25T07:56:51.204Z,2.50
2018-12-25T07:57:51.188Z,2.50
2018-12-25T07:58:51.179Z,2.40
2018-12-25T07:59:51.167Z,2.70
2018-12-25T08:00:51.158Z,2.20
2018-12-25T08:01:51.145Z,2.50
2018-12-25T08:02:51.134Z,2.50
2018-12-25T08:03:51.123Z,2.50
2018-12-25T08:04:51.112Z,2.60
2018-12-25T08:05:51.101Z,2.30
2018-12-25T08:06:51.091Z,2.50
2018-12-25T08:07:51.080Z,2.90
2018-12-25T08:08:51.067Z,2.70
2018-12-25T08:09:51.057Z,2.30
2018-12-25T08:10:51.044Z,2.60
2018-12-25T08:11:51.034Z,2.80
2018-12-25T08:12:51.022Z,2.60
2018-12-25T08:13:51.014Z,2.90
2018-12-25T08:14:51.001Z,2.80
2018-12-25T08:15:50.990Z,2.20
2018-12-25T08:16:50.979Z,2.50
2018-12-25T08:17:50.966Z,2.40
2018-12-25T08:18:50.955Z,2.50
2018-12-25T08:19:50.945Z,2.40
2018-12-25T08:20:50.933Z,2.40
2018-12-25T08:21:50.922Z,2.60
2018-12-25T08:22:50.912Z,2.40
2018-12-25T08:23:50.901Z,2.70
2018-12-25T08:24:50.889Z,2.40
2018-12-25T08:25:50.877Z,2.20
2018-12-25T08:26:50.938Z,2.40
2018-12-25T08:27:50.855Z,2.40
2018-12-25T08:28:50.845Z,2.80
2018-12-25T08:29:50.834Z,2.40
2018-12-25T08:30:50.823Z,2.30
2018-12-25T08:31:50.811Z,2.40
2018-12-25T08:32:50.801Z,2.10
2018-12-25T08:33:50.790Z,2.40
2018-12-25T08:34:50.778Z,2.30
2018-12-25T08:35:50.766Z,2.10
2018-12-25T08:36:50.758Z,2.50
2018-12-25T08:37:50.746Z,2.30
2018-12-25T08:38:50.739Z,2.50
2018-12-25T08:39:50.723Z,2.10
2018-12-25T08:40:50.791Z,2.70
2018-12-25T08:41:51.476Z,2.50
2018-12-25T08:42:50.692Z,2.10
2018-12-25T08:43:50.680Z,2.30
2018-12-25T08:44:50.667Z,2.30
2018-12-25T08:45:50.658Z,2.80
2018-12-25T08:46:50.657Z,2.60
2018-12-25T08:47:50.634Z,2.50
2018-12-25T08:48:50.623Z,2.00
2018-12-25T08:49:50.612Z,2.30
2018-12-25T08:50:50.601Z,2.50
2018-12-25T08:51:50.590Z,2.30
2018-12-25T08:52:50.580Z,2.40
2018-12-25T08:53:50.566Z,2.60
2018-12-25T08:54:50.556Z,2.40
2018-12-25T08:55:50.545Z,2.50
2018-12-25T08:56:50.533Z,2.40
2018-12-25T08:57:50.528Z,2.40
2018-12-25T08:58:50.512Z,2.60
2018-12-25T08:59:50.499Z,2.20
2018-12-25T09:00:50.490Z,2.50
2018-12-25T09:01:50.480Z,2.30
2018-12-25T09:02:50.469Z,2.80
2018-12-25T09:03:50.455Z,2.50
2018-12-25T09:04:50.445Z,2.00
2018-12-25T09:05:50.433Z,2.00
2018-12-25T09:06:50.533Z,2.10
2018-12-25T09:07:50.410Z,2.10
2018-12-25T09:08:50.402Z,2.80
2018-12-25T09:09:50.388Z,2.00
2018-12-25T09:10:50.379Z,2.20
2018-12-25T09:11:50.371Z,2.30
2018-12-25T09:12:50.356Z,2.70
2018-12-25T09:13:50.346Z,2.40
2018-12-25T09:14:50.333Z,2.30
2018-12-25T09:15:50.323Z,1.90
2018-12-25T09:16:50.310Z,2.30
2018-12-25T09:17:50.301Z,2.30
2018-12-25T09:18:50.289Z,2.00
2018-12-25T09:19:50.277Z,2.00
2018-12-25T09:20:50.279Z,2.40
2018-12-25T09:21:50.255Z,2.30
2018-12-25T09:22:50.244Z,2.30
2018-12-25T09:23:50.234Z,2.10
2018-12-25T09:24:50.226Z,2.10
2018-12-25T09:25:50.212Z,2.10
2018-12-25T09:26:50.199Z,1.90
2018-12-25T09:27:50.189Z,2.00
2018-12-25T09:28:50.178Z,2.20
2018-12-25T09:29:50.167Z,2.30
2018-12-25T09:30:50.155Z,2.40
2018-12-25T09:31:50.143Z,2.00
2018-12-25T09:32:50.132Z,2.40
2018-12-25T09:33:50.121Z,2.50
2018-12-25T09:34:50.111Z,2.00
2018-12-25T09:35:50.108Z,2.10
2018-12-25T09:36:50.089Z,2.30
2018-12-25T09:37:50.080Z,2.40
2018-12-25T09:38:50.066Z,3.10
2018-12-25T09:39:50.056Z,2.40
2018-12-25T09:40:50.045Z,2.10
2018-12-25T09:41:50.034Z,2.10
2018-12-25T09:42:50.022Z,2.60
2018-12-25T09:43:50.013Z,2.50
2018-12-25T09:44:50.030Z,2.00
2018-12-25T09:45:49.988Z,2.50
2018-12-25T09:46:49.977Z,2.40
2018-12-25T09:47:49.965Z,2.40
2018-12-25T09:48:49.954Z,2.20
2018-12-25T09:49:49.944Z,2.40
2018-12-25T09:50:49.932Z,2.20
2018-12-25T09:51:54.465Z,2.30
2018-12-25T09:52:49.911Z,2.50
2018-12-25T09:53:49.901Z,2.00
2018-12-25T09:54:49.890Z,2.20
2018-12-25T09:55:49.875Z,2.40
2018-12-25T09:56:49.869Z,2.20
2018-12-25T09:57:49.854Z,2.20
2018-12-25T09:58:49.844Z,2.00
2018-12-25T09:59:49.832Z,2.40
2018-12-25T10:00:49.821Z,2.30
2018-12-25T10:01:49.811Z,1.90
2018-12-25T10:02:49.799Z,1.90
2018-12-25T10:03:49.792Z,2.50
2018-12-25T10:04:49.784Z,2.10
2018-12-25T10:05:49.767Z,1.90
2018-12-25T10:06:49.755Z,2.20
2018-12-25T10:07:49.743Z,3.00
2018-12-25T10:08:49.733Z,2.40
2018-12-25T10:09:49.723Z,3.00
2018-12-25T10:10:49.722Z,2.70
2018-12-25T10:11:49.698Z,2.50
2018-12-25T10:12:49.692Z,2.40
2018-12-25T10:13:49.679Z,1.70
2018-12-25T10:14:49.758Z,1.90
2018-12-25T10:15:49.654Z,2.30
2018-12-25T10:16:49.991Z,2.50
2018-12-25T10:17:49.635Z,2.50
2018-12-25T10:18:49.625Z,2.50
2018-12-25T10:19:49.611Z,2.10
2018-12-25T10:20:49.605Z,2.70
2018-12-25T10:21:49.592Z,2.60
2018-12-25T10:22:49.595Z,2.50
2018-12-25T10:23:49.565Z,2.30
2018-12-25T10:24:51.342Z,2.40
2018-12-25T10:25:49.543Z,2.60
2018-12-25T10:26:49.530Z,2.60
2018-12-25T10:27:49.527Z,2.30
2018-12-25T10:28:49.517Z,2.50
2018-12-25T10:29:49.500Z,3.10
2018-12-25T10:30:49.487Z,3.40
2018-12-25T10:31:49.475Z,4.40
2018-12-25T10:32:49.463Z,5.00
2018-12-25T10:33:49.455Z,4.00
2018-12-25T10:34:49.443Z,2.90
2018-12-25T10:35:49.431Z,2.40
2018-12-25T10:36:49.421Z,2.40
2018-12-25T10:37:49.411Z,2.20
2018-12-25T10:38:49.398Z,2.40
2018-12-25T10:39:49.388Z,2.40
2018-12-25T10:40:49.375Z,2.60
2018-12-25T10:41:49.365Z,2.40
2018-12-25T10:42:49.353Z,3.00
2018-12-25T10:43:49.345Z,2.30
2018-12-25T10:44:49.330Z,2.60
2018-12-25T10:45:49.321Z,2.90
2018-12-25T10:46:49.312Z,2.20
2018-12-25T10:47:49.297Z,2.30
2018-12-25T10:48:49.287Z,2.40
2018-12-25T10:49:49.275Z,2.50
2018-12-25T10:50:49.264Z,2.20
2018-12-25T10:51:49.252Z,2.30
2018-12-25T10:52:49.243Z,2.30
2018-12-25T10:53:49.231Z,2.60
2018-12-25T10:54:49.222Z,2.80
2018-12-25T10:55:49.209Z,2.30
2018-12-25T10:56:49.250Z,2.20
2018-12-25T10:57:49.185Z,2.60
2018-12-25T10:58:49.176Z,2.20
2018-12-25T10:59:49.163Z,2.30
2018-12-25T11:00:49.153Z,3.40
2018-12-25T11:01:49.140Z,3.20
2018-12-25T11:02:49.130Z,2.90
2018-12-25T11:03:49.120Z,2.90
2018-12-25T11:04:49.162Z,2.50
2018-12-25T11:05:49.096Z,2.60
2018-12-25T11:06:49.088Z,2.20
2018-12-25T11:07:49.077Z,2.40
2018-12-25T11:08:49.062Z,2.30
2018-12-25T11:09:49.052Z,2.40
2018-12-25T11:10:49.045Z,2.40
2018-12-25T11:11:49.029Z,3.20
2018-12-25T11:12:49.019Z,3.30
2018-12-25T11:13:49.007Z,3.60
2018-12-25T11:14:48.998Z,5.10
2018-12-25T11:15:48.988Z,7.70
2018-12-25T11:16:48.973Z,7.70
2018-12-25T11:17:48.963Z,5.90
2018-12-25T11:18:49.418Z,4.50
2018-12-25T11:19:48.943Z,3.50
2018-12-25T11:20:48.929Z,3.20
2018-12-25T11:21:48.918Z,4.30
2018-12-25T11:22:48.910Z,7.40
2018-12-25T11:23:48.897Z,8.20
2018-12-25T11:24:48.885Z,12.70
2018-12-25T11:25:48.875Z,12.10
2018-12-25T11:26:48.865Z,11.00
2018-12-25T11:27:48.851Z,17.70
2018-12-25T11:28:48.842Z,21.70
2018-12-25T11:29:48.829Z,22.10
2018-12-25T11:30:48.818Z,13.60
2018-12-25T11:31:48.807Z,7.70
2018-12-25T11:32:48.795Z,4.80
2018-12-25T11:33:48.784Z,3.20
2018-12-25T11:34:48.773Z,2.40
2018-12-25T11:35:48.763Z,2.10
2018-12-25T11:36:48.751Z,2.50
2018-12-25T11:37:48.740Z,1.60
2018-12-25T11:38:48.729Z,1.70
2018-12-25T11:39:49.737Z,1.80
2018-12-25T11:40:48.707Z,1.50
2018-12-25T11:41:48.694Z,1.90
2018-12-25T11:42:48.688Z,1.80
2018-12-25T11:43:48.672Z,2.30
2018-12-25T11:44:48.663Z,1.80
2018-12-25T11:45:48.650Z,1.70
2018-12-25T11:46:48.639Z,1.90
2018-12-25T11:47:48.627Z,1.50
2018-12-25T11:48:48.618Z,1.40
2018-12-25T11:49:48.607Z,1.40
2018-12-25T11:50:48.597Z,1.50
2018-12-25T11:51:48.584Z,1.70
2018-12-25T11:52:48.573Z,1.90
2018-12-25T11:53:48.564Z,1.60
2018-12-25T11:54:48.551Z,1.80
2018-12-25T11:55:48.538Z,1.40
2018-12-25T11:56:48.528Z,1.50
2018-12-25T11:57:48.603Z,1.50
2018-12-25T11:58:48.509Z,1.60
2018-12-25T11:59:48.495Z,1.40
2018-12-25T12:00:48.484Z,1.80
2018-12-25T12:01:48.475Z,1.60
2018-12-25T12:02:48.464Z,1.80
2018-12-25T12:03:48.451Z,1.50
2018-12-25T12:04:48.439Z,1.80
2018-12-25T12:05:48.428Z,1.70
2018-12-25T12:06:48.416Z,1.50
2018-12-25T12:07:48.406Z,1.90
2018-12-25T12:08:48.399Z,1.90
2018-12-25T12:09:48.383Z,1.50
2018-12-25T12:10:48.371Z,1.90
2018-12-25T12:11:48.360Z,1.40
2018-12-25T12:12:48.352Z,1.90
2018-12-25T12:13:48.341Z,2.10
2018-12-25T12:14:48.328Z,2.30
2018-12-25T12:15:48.318Z,2.30
2018-12-25T12:16:48.311Z,2.10
2018-12-25T12:17:48.294Z,2.80
2018-12-25T12:18:48.286Z,2.60
2018-12-25T12:19:48.273Z,2.50
2018-12-25T12:20:48.261Z,1.90
2018-12-25T12:21:48.250Z,2.20
2018-12-25T12:22:48.239Z,2.00
2018-12-25T12:23:48.227Z,2.30
2018-12-25T12:24:48.221Z,1.90
2018-12-25T12:25:48.205Z,2.10
2018-12-25T12:26:48.194Z,2.20
2018-12-25T12:27:48.194Z,2.10
2018-12-25T12:28:48.170Z,2.00
2018-12-25T12:29:48.161Z,2.10
2018-12-25T12:30:48.151Z,2.10
2018-12-25T12:31:48.139Z,2.00
2018-12-25T12:32:48.127Z,2.10
2018-12-25T12:33:48.116Z,2.10
2018-12-25T12:34:48.104Z,2.10
2018-12-25T12:35:48.096Z,2.10
2018-12-25T12:36:48.082Z,2.10
2018-12-25T12:37:48.073Z,2.30
2018-12-25T12:38:48.063Z,2.30
2018-12-25T12:39:48.049Z,2.70
2018-12-25T12:40:48.039Z,2.30
2018-12-25T12:41:48.063Z,2.30
2018-12-25T12:42:48.015Z,2.40
2018-12-25T12:43:48.003Z,1.90
2018-12-25T12:44:47.992Z,2.10
2018-12-25T12:45:47.982Z,2.00
2018-12-25T12:46:47.973Z,2.00
2018-12-25T12:47:47.964Z,2.00
2018-12-25T12:48:47.949Z,1.90
2018-12-25T12:49:47.938Z,2.30
2018-12-25T12:50:47.925Z,2.20
2018-12-25T12:51:47.915Z,2.30
2018-12-25T12:52:47.907Z,2.30
2018-12-25T12:53:47.893Z,2.30
2018-12-25T12:54:47.881Z,2.30
2018-12-25T12:55:47.870Z,2.10
2018-12-25T12:56:47.859Z,2.20
2018-12-25T12:58:06.002Z,2.40
2018-12-25T12:59:29.886Z,2.00
2018-12-25T13:00:29.872Z,2.40
2018-12-25T13:01:29.949Z,2.00
2018-12-25T13:02:29.850Z,2.30
2018-12-25T13:03:29.839Z,2.10
2018-12-25T13:04:29.830Z,2.50
2018-12-25T13:05:29.817Z,2.30
2018-12-25T13:06:29.806Z,2.10
2018-12-25T13:07:29.795Z,2.20
2018-12-25T13:08:29.784Z,2.10
2018-12-25T13:09:29.853Z,2.20
2018-12-25T13:10:29.761Z,2.20
2018-12-25T13:11:29.752Z,2.00
2018-12-25T13:12:29.739Z,2.40
2018-12-25T13:13:29.728Z,2.50
2018-12-25T13:14:29.721Z,2.30
2018-12-25T13:15:29.706Z,2.20
2018-12-25T13:16:29.697Z,2.20
2018-12-25T13:17:29.684Z,2.00
2018-12-25T13:18:29.706Z,1.90
2018-12-25T13:19:29.662Z,2.60
2018-12-25T13:20:29.653Z,2.30
2018-12-25T13:21:29.640Z,2.70